sensor_id;sensor_type;location;lat;lon;timestamp;P1;durP1;ratioP1;P2;durP2;ratioP2
75216;SDS011;63800;51.972;5.682;2023-07-31T00:01:56;5.28;;;4.25;;
75216;SDS011;63800;51.972;5.682;2023-07-31T00:04:22;5.07;;;3.78;;
75216;SDS011;63800;51.972;5.682;2023-07-31T00:06:47;4.95;;;3.75;;
75216;SDS011;63800;51.972;5.682;2023-07-31T00:09:13;4.40;;;3.55;;
75216;SDS011;63800;51.972;5.682;2023-07-31T00:11:38;3.80;;;3.30;;
75216;SDS011;63800;51.972;5.682;2023-07-31T00:14:04;4.60;;;3.88;;
75216;SDS011;63800;51.972;5.682;2023-07-31T00:16:29;3.75;;;2.83;;
75216;SDS011;63800;51.972;5.682;2023-07-31T00:18:55;3.97;;;2.97;;
75216;SDS011;63800;51.972;5.682;2023-07-31T00:21:20;3.38;;;3.00;;
75216;SDS011;63800;51.972;5.682;2023-07-31T00:23:46;5.28;;;3.50;;
75216;SDS011;63800;51.972;5.682;2023-07-31T00:26:11;8.45;;;5.00;;
75216;SDS011;63800;51.972;5.682;2023-07-31T00:28:36;7.72;;;4.60;;
75216;SDS011;63800;51.972;5.682;2023-07-31T00:31:02;8.00;;;5.22;;
75216;SDS011;63800;51.972;5.682;2023-07-31T00:33:28;9.73;;;6.28;;
75216;SDS011;63800;51.972;5.682;2023-07-31T00:35:54;12.40;;;7.90;;
75216;SDS011;63800;51.972;5.682;2023-07-31T00:38:20;16.60;;;7.88;;
75216;SDS011;63800;51.972;5.682;2023-07-31T00:40:45;13.52;;;8.55;;
75216;SDS011;63800;51.972;5.682;2023-07-31T00:43:11;13.10;;;7.20;;
75216;SDS011;63800;51.972;5.682;2023-07-31T00:45:36;16.23;;;7.68;;
75216;SDS011;63800;51.972;5.682;2023-07-31T00:48:02;20.13;;;8.93;;
75216;SDS011;63800;51.972;5.682;2023-07-31T00:50:27;23.33;;;9.10;;
75216;SDS011;63800;51.972;5.682;2023-07-31T00:52:53;23.65;;;10.15;;
75216;SDS011;63800;51.972;5.682;2023-07-31T00:55:19;30.80;;;11.10;;
75216;SDS011;63800;51.972;5.682;2023-07-31T00:57:46;25.90;;;11.65;;
75216;SDS011;63800;51.972;5.682;2023-07-31T01:00:13;23.90;;;10.02;;
75216;SDS011;63800;51.972;5.682;2023-07-31T01:02:38;21.77;;;10.98;;
75216;SDS011;63800;51.972;5.682;2023-07-31T01:05:04;28.95;;;11.07;;
75216;SDS011;63800;51.972;5.682;2023-07-31T01:12:40;24.42;;;9.60;;
75216;SDS011;63800;51.972;5.682;2023-07-31T01:15:07;25.23;;;10.35;;
75216;SDS011;63800;51.972;5.682;2023-07-31T01:17:37;25.80;;;11.60;;
75216;SDS011;63800;51.972;5.682;2023-07-31T01:20:04;21.80;;;8.93;;
75216;SDS011;63800;51.972;5.682;2023-07-31T01:22:45;24.27;;;10.18;;
75216;SDS011;63800;51.972;5.682;2023-07-31T01:28:02;24.70;;;9.75;;
75216;SDS011;63800;51.972;5.682;2023-07-31T01:30:39;24.73;;;10.30;;
75216;SDS011;63800;51.972;5.682;2023-07-31T01:33:08;20.95;;;9.45;;
75216;SDS011;63800;51.972;5.682;2023-07-31T01:35:34;23.23;;;9.55;;
75216;SDS011;63800;51.972;5.682;2023-07-31T01:38:02;25.02;;;9.80;;
75216;SDS011;63800;51.972;5.682;2023-07-31T01:40:27;21.88;;;9.90;;
75216;SDS011;63800;51.972;5.682;2023-07-31T01:42:53;20.50;;;10.00;;
75216;SDS011;63800;51.972;5.682;2023-07-31T01:45:18;21.38;;;9.10;;
75216;SDS011;63800;51.972;5.682;2023-07-31T01:47:44;26.23;;;9.55;;
75216;SDS011;63800;51.972;5.682;2023-07-31T01:50:09;22.92;;;9.43;;
75216;SDS011;63800;51.972;5.682;2023-07-31T01:52:35;23.20;;;9.48;;
75216;SDS011;63800;51.972;5.682;2023-07-31T01:55:00;23.83;;;10.40;;
75216;SDS011;63800;51.972;5.682;2023-07-31T01:57:26;24.15;;;9.32;;
75216;SDS011;63800;51.972;5.682;2023-07-31T01:59:51;23.48;;;9.73;;
75216;SDS011;63800;51.972;5.682;2023-07-31T02:02:18;21.25;;;9.57;;
75216;SDS011;63800;51.972;5.682;2023-07-31T02:04:44;23.00;;;9.35;;
75216;SDS011;63800;51.972;5.682;2023-07-31T02:07:09;22.80;;;10.25;;
75216;SDS011;63800;51.972;5.682;2023-07-31T02:09:35;22.20;;;9.88;;
75216;SDS011;63800;51.972;5.682;2023-07-31T02:12:00;24.02;;;9.93;;
75216;SDS011;63800;51.972;5.682;2023-07-31T02:14:26;23.13;;;9.95;;
75216;SDS011;63800;51.972;5.682;2023-07-31T02:16:51;17.15;;;8.48;;
75216;SDS011;63800;51.972;5.682;2023-07-31T02:19:17;20.83;;;8.35;;
75216;SDS011;63800;51.972;5.682;2023-07-31T02:21:42;18.40;;;8.73;;
75216;SDS011;63800;51.972;5.682;2023-07-31T02:24:07;20.05;;;8.68;;
75216;SDS011;63800;51.972;5.682;2023-07-31T02:26:33;15.30;;;7.47;;
75216;SDS011;63800;51.972;5.682;2023-07-31T02:28:58;14.98;;;7.28;;
75216;SDS011;63800;51.972;5.682;2023-07-31T02:31:24;15.55;;;6.90;;
75216;SDS011;63800;51.972;5.682;2023-07-31T02:33:49;16.00;;;7.68;;
75216;SDS011;63800;51.972;5.682;2023-07-31T02:36:15;15.55;;;7.80;;
75216;SDS011;63800;51.972;5.682;2023-07-31T02:38:40;14.52;;;7.22;;
75216;SDS011;63800;51.972;5.682;2023-07-31T02:41:05;19.13;;;8.63;;
75216;SDS011;63800;51.972;5.682;2023-07-31T02:43:31;18.20;;;7.40;;
75216;SDS011;63800;51.972;5.682;2023-07-31T02:45:56;18.95;;;7.70;;
75216;SDS011;63800;51.972;5.682;2023-07-31T02:48:22;17.23;;;7.30;;
75216;SDS011;63800;51.972;5.682;2023-07-31T02:50:47;20.08;;;7.75;;
75216;SDS011;63800;51.972;5.682;2023-07-31T02:53:13;20.50;;;7.50;;
75216;SDS011;63800;51.972;5.682;2023-07-31T02:55:39;22.92;;;8.70;;
75216;SDS011;63800;51.972;5.682;2023-07-31T02:58:04;20.13;;;7.55;;
75216;SDS011;63800;51.972;5.682;2023-07-31T03:00:30;21.13;;;7.93;;
75216;SDS011;63800;51.972;5.682;2023-07-31T03:02:55;15.05;;;6.80;;
75216;SDS011;63800;51.972;5.682;2023-07-31T03:05:21;20.00;;;8.63;;
75216;SDS011;63800;51.972;5.682;2023-07-31T03:07:46;20.52;;;8.07;;
75216;SDS011;63800;51.972;5.682;2023-07-31T03:10:12;18.73;;;8.20;;
75216;SDS011;63800;51.972;5.682;2023-07-31T03:12:37;20.70;;;8.80;;
75216;SDS011;63800;51.972;5.682;2023-07-31T03:15:03;19.92;;;7.53;;
75216;SDS011;63800;51.972;5.682;2023-07-31T03:17:28;19.88;;;7.82;;
75216;SDS011;63800;51.972;5.682;2023-07-31T03:19:54;18.75;;;7.70;;
75216;SDS011;63800;51.972;5.682;2023-07-31T03:22:19;20.42;;;7.15;;
75216;SDS011;63800;51.972;5.682;2023-07-31T03:24:45;18.35;;;7.38;;
75216;SDS011;63800;51.972;5.682;2023-07-31T03:27:10;20.67;;;8.10;;
75216;SDS011;63800;51.972;5.682;2023-07-31T03:29:35;18.63;;;8.05;;
75216;SDS011;63800;51.972;5.682;2023-07-31T03:32:01;20.60;;;8.07;;
75216;SDS011;63800;51.972;5.682;2023-07-31T03:34:26;19.20;;;7.38;;
75216;SDS011;63800;51.972;5.682;2023-07-31T03:36:52;23.95;;;7.72;;
75216;SDS011;63800;51.972;5.682;2023-07-31T03:39:18;16.10;;;6.28;;
75216;SDS011;63800;51.972;5.682;2023-07-31T03:41:43;17.38;;;6.63;;
75216;SDS011;63800;51.972;5.682;2023-07-31T03:44:09;18.08;;;7.88;;
75216;SDS011;63800;51.972;5.682;2023-07-31T03:46:34;19.92;;;7.22;;
75216;SDS011;63800;51.972;5.682;2023-07-31T03:49:01;17.13;;;7.50;;
75216;SDS011;63800;51.972;5.682;2023-07-31T03:51:26;16.13;;;7.40;;
75216;SDS011;63800;51.972;5.682;2023-07-31T03:53:52;13.02;;;6.50;;
75216;SDS011;63800;51.972;5.682;2023-07-31T03:56:17;16.42;;;7.38;;
75216;SDS011;63800;51.972;5.682;2023-07-31T03:58:42;16.35;;;7.03;;
75216;SDS011;63800;51.972;5.682;2023-07-31T04:01:08;16.30;;;6.57;;
75216;SDS011;63800;51.972;5.682;2023-07-31T04:03:33;18.70;;;7.82;;
75216;SDS011;63800;51.972;5.682;2023-07-31T04:05:59;18.63;;;6.55;;
75216;SDS011;63800;51.972;5.682;2023-07-31T04:08:24;15.25;;;6.68;;
75216;SDS011;63800;51.972;5.682;2023-07-31T04:10:50;15.68;;;6.60;;
75216;SDS011;63800;51.972;5.682;2023-07-31T04:13:15;18.17;;;6.55;;
75216;SDS011;63800;51.972;5.682;2023-07-31T04:15:41;20.27;;;6.22;;
75216;SDS011;63800;51.972;5.682;2023-07-31T04:18:07;14.40;;;6.10;;
75216;SDS011;63800;51.972;5.682;2023-07-31T04:20:32;19.20;;;7.30;;
75216;SDS011;63800;51.972;5.682;2023-07-31T04:22:58;17.50;;;6.93;;
75216;SDS011;63800;51.972;5.682;2023-07-31T04:25:23;17.73;;;7.68;;
75216;SDS011;63800;51.972;5.682;2023-07-31T04:27:49;17.83;;;6.75;;
75216;SDS011;63800;51.972;5.682;2023-07-31T04:30:14;17.85;;;6.68;;
75216;SDS011;63800;51.972;5.682;2023-07-31T04:32:40;16.00;;;7.07;;
75216;SDS011;63800;51.972;5.682;2023-07-31T04:35:05;17.67;;;7.45;;
75216;SDS011;63800;51.972;5.682;2023-07-31T04:37:31;18.73;;;7.40;;
75216;SDS011;63800;51.972;5.682;2023-07-31T04:39:56;17.45;;;6.75;;
75216;SDS011;63800;51.972;5.682;2023-07-31T04:42:22;18.38;;;7.75;;
75216;SDS011;63800;51.972;5.682;2023-07-31T04:44:47;20.95;;;6.97;;
75216;SDS011;63800;51.972;5.682;2023-07-31T04:47:13;17.27;;;7.18;;
75216;SDS011;63800;51.972;5.682;2023-07-31T04:49:38;14.75;;;7.20;;
75216;SDS011;63800;51.972;5.682;2023-07-31T04:52:04;16.27;;;7.00;;
75216;SDS011;63800;51.972;5.682;2023-07-31T04:54:29;16.88;;;6.72;;
75216;SDS011;63800;51.972;5.682;2023-07-31T04:56:55;13.18;;;6.57;;
75216;SDS011;63800;51.972;5.682;2023-07-31T04:59:20;17.52;;;7.35;;
75216;SDS011;63800;51.972;5.682;2023-07-31T05:01:46;17.48;;;6.60;;
75216;SDS011;63800;51.972;5.682;2023-07-31T05:04:14;18.42;;;7.05;;
75216;SDS011;63800;51.972;5.682;2023-07-31T05:06:41;15.85;;;7.85;;
75216;SDS011;63800;51.972;5.682;2023-07-31T05:09:07;17.13;;;7.72;;
75216;SDS011;63800;51.972;5.682;2023-07-31T05:11:34;19.40;;;8.15;;
75216;SDS011;63800;51.972;5.682;2023-07-31T05:13:59;17.55;;;8.52;;
75216;SDS011;63800;51.972;5.682;2023-07-31T05:16:25;17.50;;;8.70;;
75216;SDS011;63800;51.972;5.682;2023-07-31T05:18:50;17.75;;;8.25;;
75216;SDS011;63800;51.972;5.682;2023-07-31T05:21:16;13.80;;;7.70;;
75216;SDS011;63800;51.972;5.682;2023-07-31T05:23:41;21.83;;;9.10;;
75216;SDS011;63800;51.972;5.682;2023-07-31T05:26:07;17.58;;;7.68;;
75216;SDS011;63800;51.972;5.682;2023-07-31T05:28:34;16.10;;;7.65;;
75216;SDS011;63800;51.972;5.682;2023-07-31T05:31:01;21.13;;;8.52;;
75216;SDS011;63800;51.972;5.682;2023-07-31T05:33:27;14.60;;;7.53;;
75216;SDS011;63800;51.972;5.682;2023-07-31T05:35:53;18.90;;;8.48;;
75216;SDS011;63800;51.972;5.682;2023-07-31T05:38:18;14.98;;;8.50;;
75216;SDS011;63800;51.972;5.682;2023-07-31T05:40:44;15.25;;;7.85;;
75216;SDS011;63800;51.972;5.682;2023-07-31T05:43:09;19.75;;;8.85;;
75216;SDS011;63800;51.972;5.682;2023-07-31T05:45:35;16.73;;;8.65;;
75216;SDS011;63800;51.972;5.682;2023-07-31T05:48:01;20.10;;;9.60;;
75216;SDS011;63800;51.972;5.682;2023-07-31T05:50:27;18.85;;;9.48;;
75216;SDS011;63800;51.972;5.682;2023-07-31T05:52:52;18.45;;;9.65;;
75216;SDS011;63800;51.972;5.682;2023-07-31T05:55:18;17.98;;;9.68;;
75216;SDS011;63800;51.972;5.682;2023-07-31T05:57:43;20.70;;;9.30;;
75216;SDS011;63800;51.972;5.682;2023-07-31T06:00:11;17.17;;;9.60;;
75216;SDS011;63800;51.972;5.682;2023-07-31T06:02:37;15.95;;;8.07;;
75216;SDS011;63800;51.972;5.682;2023-07-31T06:05:03;17.98;;;7.50;;
75216;SDS011;63800;51.972;5.682;2023-07-31T06:07:31;14.77;;;7.05;;
75216;SDS011;63800;51.972;5.682;2023-07-31T06:09:57;14.75;;;6.75;;
75216;SDS011;63800;51.972;5.682;2023-07-31T06:12:27;11.20;;;6.07;;
75216;SDS011;63800;51.972;5.682;2023-07-31T06:14:53;15.25;;;7.03;;
75216;SDS011;63800;51.972;5.682;2023-07-31T06:17:19;13.02;;;6.43;;
75216;SDS011;63800;51.972;5.682;2023-07-31T06:19:44;16.08;;;6.72;;
75216;SDS011;63800;51.972;5.682;2023-07-31T06:22:10;11.13;;;6.05;;
75216;SDS011;63800;51.972;5.682;2023-07-31T06:24:35;10.82;;;5.95;;
75216;SDS011;63800;51.972;5.682;2023-07-31T06:27:00;14.77;;;7.30;;
75216;SDS011;63800;51.972;5.682;2023-07-31T06:29:28;14.65;;;6.32;;
75216;SDS011;63800;51.972;5.682;2023-07-31T06:31:54;14.70;;;6.22;;
75216;SDS011;63800;51.972;5.682;2023-07-31T06:34:20;11.52;;;6.10;;
75216;SDS011;63800;51.972;5.682;2023-07-31T06:36:45;14.57;;;7.00;;
75216;SDS011;63800;51.972;5.682;2023-07-31T06:39:11;12.60;;;6.25;;
75216;SDS011;63800;51.972;5.682;2023-07-31T06:41:37;10.68;;;6.47;;
75216;SDS011;63800;51.972;5.682;2023-07-31T06:44:03;9.55;;;5.35;;
75216;SDS011;63800;51.972;5.682;2023-07-31T06:46:28;14.85;;;7.80;;
75216;SDS011;63800;51.972;5.682;2023-07-31T06:48:54;12.35;;;6.63;;
75216;SDS011;63800;51.972;5.682;2023-07-31T06:51:20;12.98;;;7.20;;
75216;SDS011;63800;51.972;5.682;2023-07-31T06:53:45;10.60;;;6.85;;
75216;SDS011;63800;51.972;5.682;2023-07-31T06:56:11;14.80;;;7.28;;
75216;SDS011;63800;51.972;5.682;2023-07-31T06:58:36;11.63;;;5.65;;
75216;SDS011;63800;51.972;5.682;2023-07-31T07:01:02;11.13;;;6.60;;
75216;SDS011;63800;51.972;5.682;2023-07-31T07:03:28;9.70;;;6.13;;
75216;SDS011;63800;51.972;5.682;2023-07-31T07:05:53;8.30;;;5.93;;
75216;SDS011;63800;51.972;5.682;2023-07-31T07:08:18;8.95;;;5.90;;
75216;SDS011;63800;51.972;5.682;2023-07-31T07:10:44;9.35;;;5.90;;
75216;SDS011;63800;51.972;5.682;2023-07-31T07:13:09;8.32;;;5.95;;
75216;SDS011;63800;51.972;5.682;2023-07-31T07:15:35;9.07;;;5.85;;
75216;SDS011;63800;51.972;5.682;2023-07-31T07:18:00;10.13;;;6.85;;
75216;SDS011;63800;51.972;5.682;2023-07-31T07:20:26;8.93;;;6.10;;
75216;SDS011;63800;51.972;5.682;2023-07-31T07:22:51;10.13;;;6.03;;
75216;SDS011;63800;51.972;5.682;2023-07-31T07:25:17;8.85;;;5.90;;
75216;SDS011;63800;51.972;5.682;2023-07-31T07:27:42;6.80;;;5.13;;
75216;SDS011;63800;51.972;5.682;2023-07-31T07:30:07;8.77;;;6.53;;
75216;SDS011;63800;51.972;5.682;2023-07-31T07:32:34;6.85;;;5.30;;
75216;SDS011;63800;51.972;5.682;2023-07-31T07:35:00;6.15;;;4.55;;
75216;SDS011;63800;51.972;5.682;2023-07-31T07:37:25;5.93;;;4.22;;
75216;SDS011;63800;51.972;5.682;2023-07-31T07:39:51;5.05;;;4.50;;
75216;SDS011;63800;51.972;5.682;2023-07-31T07:42:16;5.38;;;4.30;;
75216;SDS011;63800;51.972;5.682;2023-07-31T07:44:42;6.63;;;4.28;;
75216;SDS011;63800;51.972;5.682;2023-07-31T07:47:07;4.65;;;3.85;;
75216;SDS011;63800;51.972;5.682;2023-07-31T07:49:33;6.25;;;5.07;;
75216;SDS011;63800;51.972;5.682;2023-07-31T07:51:59;5.47;;;4.40;;
75216;SDS011;63800;51.972;5.682;2023-07-31T07:54:25;6.68;;;5.28;;
75216;SDS011;63800;51.972;5.682;2023-07-31T07:56:51;4.47;;;3.95;;
75216;SDS011;63800;51.972;5.682;2023-07-31T07:59:16;6.05;;;4.75;;
75216;SDS011;63800;51.972;5.682;2023-07-31T08:01:42;6.32;;;5.50;;
75216;SDS011;63800;51.972;5.682;2023-07-31T08:04:08;11.80;;;6.05;;
75216;SDS011;63800;51.972;5.682;2023-07-31T08:06:33;5.40;;;4.50;;
75216;SDS011;63800;51.972;5.682;2023-07-31T08:08:59;5.03;;;4.15;;
75216;SDS011;63800;51.972;5.682;2023-07-31T08:11:24;6.70;;;3.90;;
75216;SDS011;63800;51.972;5.682;2023-07-31T08:13:50;6.32;;;4.30;;
75216;SDS011;63800;51.972;5.682;2023-07-31T08:16:15;4.72;;;4.10;;
75216;SDS011;63800;51.972;5.682;2023-07-31T08:18:41;6.05;;;4.35;;
75216;SDS011;63800;51.972;5.682;2023-07-31T08:21:07;5.22;;;3.83;;
75216;SDS011;63800;51.972;5.682;2023-07-31T08:23:33;5.22;;;4.22;;
75216;SDS011;63800;51.972;5.682;2023-07-31T08:25:59;5.38;;;4.55;;
75216;SDS011;63800;51.972;5.682;2023-07-31T08:28:24;5.00;;;4.35;;
75216;SDS011;63800;51.972;5.682;2023-07-31T08:30:50;6.00;;;4.13;;
75216;SDS011;63800;51.972;5.682;2023-07-31T08:33:15;6.95;;;4.80;;
75216;SDS011;63800;51.972;5.682;2023-07-31T08:35:41;5.38;;;4.05;;
75216;SDS011;63800;51.972;5.682;2023-07-31T08:38:06;5.47;;;4.25;;
75216;SDS011;63800;51.972;5.682;2023-07-31T08:40:32;5.00;;;4.40;;
75216;SDS011;63800;51.972;5.682;2023-07-31T08:43:01;6.47;;;4.75;;
75216;SDS011;63800;51.972;5.682;2023-07-31T08:45:27;6.47;;;4.20;;
75216;SDS011;63800;51.972;5.682;2023-07-31T08:47:53;6.20;;;4.65;;
75216;SDS011;63800;51.972;5.682;2023-07-31T08:50:21;5.07;;;4.28;;
75216;SDS011;63800;51.972;5.682;2023-07-31T08:52:47;5.18;;;4.30;;
75216;SDS011;63800;51.972;5.682;2023-07-31T08:55:13;5.15;;;4.15;;
75216;SDS011;63800;51.972;5.682;2023-07-31T08:57:39;5.45;;;4.28;;
75216;SDS011;63800;51.972;5.682;2023-07-31T09:00:05;6.05;;;4.53;;
75216;SDS011;63800;51.972;5.682;2023-07-31T09:02:39;5.88;;;4.75;;
75216;SDS011;63800;51.972;5.682;2023-07-31T09:05:11;5.45;;;4.55;;
75216;SDS011;63800;51.972;5.682;2023-07-31T09:07:37;5.28;;;4.70;;
75216;SDS011;63800;51.972;5.682;2023-07-31T09:10:03;6.88;;;4.80;;
75216;SDS011;63800;51.972;5.682;2023-07-31T09:12:30;6.88;;;5.82;;
75216;SDS011;63800;51.972;5.682;2023-07-31T09:14:56;7.45;;;6.65;;
75216;SDS011;63800;51.972;5.682;2023-07-31T09:17:32;7.72;;;6.80;;
75216;SDS011;63800;51.972;5.682;2023-07-31T09:20:12;9.25;;;6.82;;
75216;SDS011;63800;51.972;5.682;2023-07-31T09:22:38;9.63;;;7.03;;
75216;SDS011;63800;51.972;5.682;2023-07-31T09:25:14;8.77;;;7.30;;
75216;SDS011;63800;51.972;5.682;2023-07-31T09:27:47;9.80;;;7.75;;
75216;SDS011;63800;51.972;5.682;2023-07-31T09:30:18;10.10;;;7.97;;
75216;SDS011;63800;51.972;5.682;2023-07-31T09:32:45;11.50;;;8.60;;
75216;SDS011;63800;51.972;5.682;2023-07-31T09:35:21;10.65;;;9.43;;
75216;SDS011;63800;51.972;5.682;2023-07-31T09:37:48;12.48;;;8.95;;
75216;SDS011;63800;51.972;5.682;2023-07-31T09:40:28;13.73;;;9.95;;
75216;SDS011;63800;51.972;5.682;2023-07-31T09:42:58;13.45;;;9.88;;
75216;SDS011;63800;51.972;5.682;2023-07-31T09:45:25;15.32;;;10.90;;
75216;SDS011;63800;51.972;5.682;2023-07-31T09:47:51;14.57;;;10.05;;
75216;SDS011;63800;51.972;5.682;2023-07-31T09:50:17;14.30;;;9.45;;
75216;SDS011;63800;51.972;5.682;2023-07-31T09:52:45;14.20;;;10.43;;
75216;SDS011;63800;51.972;5.682;2023-07-31T09:55:10;13.80;;;10.52;;
75216;SDS011;63800;51.972;5.682;2023-07-31T09:57:39;12.90;;;10.25;;
75216;SDS011;63800;51.972;5.682;2023-07-31T10:00:09;13.43;;;10.32;;
75216;SDS011;63800;51.972;5.682;2023-07-31T10:02:35;14.20;;;10.57;;
75216;SDS011;63800;51.972;5.682;2023-07-31T10:05:02;16.90;;;12.27;;
75216;SDS011;63800;51.972;5.682;2023-07-31T10:07:30;14.82;;;11.18;;
75216;SDS011;63800;51.972;5.682;2023-07-31T10:09:59;14.52;;;11.30;;
75216;SDS011;63800;51.972;5.682;2023-07-31T10:12:26;15.13;;;11.05;;
75216;SDS011;63800;51.972;5.682;2023-07-31T10:14:55;14.63;;;11.25;;
75216;SDS011;63800;51.972;5.682;2023-07-31T10:17:21;14.27;;;11.43;;
75216;SDS011;63800;51.972;5.682;2023-07-31T10:19:48;19.33;;;11.88;;
75216;SDS011;63800;51.972;5.682;2023-07-31T10:22:14;14.77;;;10.73;;
75216;SDS011;63800;51.972;5.682;2023-07-31T10:24:42;14.02;;;10.73;;
75216;SDS011;63800;51.972;5.682;2023-07-31T10:27:08;14.20;;;10.57;;
75216;SDS011;63800;51.972;5.682;2023-07-31T10:29:34;13.45;;;10.98;;
75216;SDS011;63800;51.972;5.682;2023-07-31T10:32:01;15.32;;;10.48;;
75216;SDS011;63800;51.972;5.682;2023-07-31T10:34:27;13.80;;;10.98;;
75216;SDS011;63800;51.972;5.682;2023-07-31T10:37:36;14.05;;;10.80;;
75216;SDS011;63800;51.972;5.682;2023-07-31T10:39:59;14.38;;;11.15;;
75216;SDS011;63800;51.972;5.682;2023-07-31T10:42:35;14.65;;;10.38;;
75216;SDS011;63800;51.972;5.682;2023-07-31T10:45:04;15.32;;;11.80;;
75216;SDS011;63800;51.972;5.682;2023-07-31T10:47:44;16.58;;;10.80;;
75216;SDS011;63800;51.972;5.682;2023-07-31T10:52:44;12.93;;;10.63;;
75216;SDS011;63800;51.972;5.682;2023-07-31T10:55:16;12.70;;;9.80;;
75216;SDS011;63800;51.972;5.682;2023-07-31T10:57:52;15.32;;;10.60;;
75216;SDS011;63800;51.972;5.682;2023-07-31T11:00:26;12.85;;;9.18;;
75216;SDS011;63800;51.972;5.682;2023-07-31T11:03:03;13.77;;;9.82;;
75216;SDS011;63800;51.972;5.682;2023-07-31T11:08:23;13.13;;;9.95;;
75216;SDS011;63800;51.972;5.682;2023-07-31T11:13:31;12.63;;;10.10;;
75216;SDS011;63800;51.972;5.682;2023-07-31T11:16:21;12.90;;;9.77;;
75216;SDS011;63800;51.972;5.682;2023-07-31T11:18:48;13.73;;;10.65;;
75216;SDS011;63800;51.972;5.682;2023-07-31T11:21:18;11.98;;;10.52;;
75216;SDS011;63800;51.972;5.682;2023-07-31T11:23:45;14.43;;;11.35;;
75216;SDS011;63800;51.972;5.682;2023-07-31T11:26:12;13.95;;;10.30;;
75216;SDS011;63800;51.972;5.682;2023-07-31T11:28:37;11.45;;;10.00;;
75216;SDS011;63800;51.972;5.682;2023-07-31T11:31:04;14.02;;;10.77;;
75216;SDS011;63800;51.972;5.682;2023-07-31T11:33:33;12.50;;;9.30;;
75216;SDS011;63800;51.972;5.682;2023-07-31T11:35:58;12.35;;;9.18;;
75216;SDS011;63800;51.972;5.682;2023-07-31T11:38:25;11.32;;;9.18;;
75216;SDS011;63800;51.972;5.682;2023-07-31T11:40:52;8.70;;;7.80;;
75216;SDS011;63800;51.972;5.682;2023-07-31T11:43:19;11.32;;;7.97;;
75216;SDS011;63800;51.972;5.682;2023-07-31T11:45:51;12.27;;;7.47;;
75216;SDS011;63800;51.972;5.682;2023-07-31T11:48:24;9.45;;;7.90;;
75216;SDS011;63800;51.972;5.682;2023-07-31T11:50:57;10.77;;;7.20;;
75216;SDS011;63800;51.972;5.682;2023-07-31T11:53:28;8.73;;;7.07;;
75216;SDS011;63800;51.972;5.682;2023-07-31T11:55:55;9.35;;;8.10;;
75216;SDS011;63800;51.972;5.682;2023-07-31T11:58:23;9.77;;;7.80;;
75216;SDS011;63800;51.972;5.682;2023-07-31T12:00:49;9.13;;;6.15;;
75216;SDS011;63800;51.972;5.682;2023-07-31T12:03:15;8.23;;;6.30;;
75216;SDS011;63800;51.972;5.682;2023-07-31T12:05:41;6.03;;;5.43;;
75216;SDS011;63800;51.972;5.682;2023-07-31T12:08:10;6.03;;;5.20;;
75216;SDS011;63800;51.972;5.682;2023-07-31T12:10:39;7.82;;;5.90;;
75216;SDS011;63800;51.972;5.682;2023-07-31T12:13:09;7.82;;;6.60;;
75216;SDS011;63800;51.972;5.682;2023-07-31T12:15:42;8.68;;;6.85;;
75216;SDS011;63800;51.972;5.682;2023-07-31T12:18:09;7.80;;;6.97;;
75216;SDS011;63800;51.972;5.682;2023-07-31T12:20:39;8.25;;;6.85;;
75216;SDS011;63800;51.972;5.682;2023-07-31T12:23:13;8.70;;;7.20;;
75216;SDS011;63800;51.972;5.682;2023-07-31T12:25:43;8.73;;;7.50;;
75216;SDS011;63800;51.972;5.682;2023-07-31T12:28:09;8.50;;;7.65;;
75216;SDS011;63800;51.972;5.682;2023-07-31T12:30:38;8.07;;;6.85;;
75216;SDS011;63800;51.972;5.682;2023-07-31T12:33:14;8.00;;;7.20;;
75216;SDS011;63800;51.972;5.682;2023-07-31T12:35:41;8.98;;;7.65;;
75216;SDS011;63800;51.972;5.682;2023-07-31T12:38:08;9.27;;;8.25;;
75216;SDS011;63800;51.972;5.682;2023-07-31T12:40:36;8.38;;;7.18;;
75216;SDS011;63800;51.972;5.682;2023-07-31T12:43:03;9.05;;;7.80;;
75216;SDS011;63800;51.972;5.682;2023-07-31T12:45:30;12.18;;;8.15;;
75216;SDS011;63800;51.972;5.682;2023-07-31T12:47:56;11.45;;;8.85;;
75216;SDS011;63800;51.972;5.682;2023-07-31T12:50:22;11.43;;;9.50;;
75216;SDS011;63800;51.972;5.682;2023-07-31T12:52:48;14.52;;;10.60;;
75216;SDS011;63800;51.972;5.682;2023-07-31T12:55:14;13.95;;;11.32;;
75216;SDS011;63800;51.972;5.682;2023-07-31T12:57:39;15.10;;;10.88;;
75216;SDS011;63800;51.972;5.682;2023-07-31T13:00:07;14.23;;;10.30;;
75216;SDS011;63800;51.972;5.682;2023-07-31T13:02:33;13.02;;;10.02;;
75216;SDS011;63800;51.972;5.682;2023-07-31T13:04:58;11.32;;;9.07;;
75216;SDS011;63800;51.972;5.682;2023-07-31T13:07:24;12.50;;;9.65;;
75216;SDS011;63800;51.972;5.682;2023-07-31T13:09:50;12.65;;;9.52;;
75216;SDS011;63800;51.972;5.682;2023-07-31T13:12:15;12.10;;;9.35;;
75216;SDS011;63800;51.972;5.682;2023-07-31T13:14:41;15.57;;;10.00;;
75216;SDS011;63800;51.972;5.682;2023-07-31T13:17:06;13.35;;;9.35;;
75216;SDS011;63800;51.972;5.682;2023-07-31T13:19:32;12.15;;;10.38;;
75216;SDS011;63800;51.972;5.682;2023-07-31T13:21:57;13.25;;;9.88;;
75216;SDS011;63800;51.972;5.682;2023-07-31T13:24:23;12.05;;;9.75;;
75216;SDS011;63800;51.972;5.682;2023-07-31T13:26:48;13.95;;;9.25;;
75216;SDS011;63800;51.972;5.682;2023-07-31T13:29:14;13.00;;;9.55;;
75216;SDS011;63800;51.972;5.682;2023-07-31T13:31:39;11.73;;;9.13;;
75216;SDS011;63800;51.972;5.682;2023-07-31T13:34:05;13.73;;;8.93;;
75216;SDS011;63800;51.972;5.682;2023-07-31T13:36:30;14.10;;;9.38;;
75216;SDS011;63800;51.972;5.682;2023-07-31T13:38:56;12.60;;;8.98;;
75216;SDS011;63800;51.972;5.682;2023-07-31T13:41:21;12.50;;;9.43;;
75216;SDS011;63800;51.972;5.682;2023-07-31T13:43:47;13.02;;;9.40;;
75216;SDS011;63800;51.972;5.682;2023-07-31T13:46:12;13.00;;;9.52;;
75216;SDS011;63800;51.972;5.682;2023-07-31T13:48:37;13.27;;;9.38;;
75216;SDS011;63800;51.972;5.682;2023-07-31T13:51:03;14.15;;;8.98;;
75216;SDS011;63800;51.972;5.682;2023-07-31T13:53:28;13.98;;;10.02;;
75216;SDS011;63800;51.972;5.682;2023-07-31T13:55:54;14.82;;;10.43;;
75216;SDS011;63800;51.972;5.682;2023-07-31T13:58:20;13.32;;;10.00;;
75216;SDS011;63800;51.972;5.682;2023-07-31T14:00:46;15.05;;;10.80;;
75216;SDS011;63800;51.972;5.682;2023-07-31T14:03:11;16.35;;;11.70;;
75216;SDS011;63800;51.972;5.682;2023-07-31T14:05:37;17.48;;;11.32;;
75216;SDS011;63800;51.972;5.682;2023-07-31T14:08:02;17.02;;;11.35;;
75216;SDS011;63800;51.972;5.682;2023-07-31T14:10:28;14.95;;;10.25;;
75216;SDS011;63800;51.972;5.682;2023-07-31T14:12:54;15.50;;;10.93;;
75216;SDS011;63800;51.972;5.682;2023-07-31T14:15:19;12.93;;;9.35;;
75216;SDS011;63800;51.972;5.682;2023-07-31T14:17:44;15.35;;;10.32;;
75216;SDS011;63800;51.972;5.682;2023-07-31T14:20:10;15.00;;;10.38;;
75216;SDS011;63800;51.972;5.682;2023-07-31T14:22:36;12.95;;;10.10;;
75216;SDS011;63800;51.972;5.682;2023-07-31T14:25:02;14.93;;;10.70;;
75216;SDS011;63800;51.972;5.682;2023-07-31T14:27:28;14.90;;;9.93;;
75216;SDS011;63800;51.972;5.682;2023-07-31T14:29:54;15.00;;;11.05;;
75216;SDS011;63800;51.972;5.682;2023-07-31T14:32:19;15.32;;;11.20;;
75216;SDS011;63800;51.972;5.682;2023-07-31T14:34:46;16.05;;;11.20;;
75216;SDS011;63800;51.972;5.682;2023-07-31T14:37:11;16.67;;;10.40;;
75216;SDS011;63800;51.972;5.682;2023-07-31T14:39:36;14.00;;;9.50;;
75216;SDS011;63800;51.972;5.682;2023-07-31T14:42:02;11.77;;;8.70;;
75216;SDS011;63800;51.972;5.682;2023-07-31T14:44:27;14.95;;;9.57;;
75216;SDS011;63800;51.972;5.682;2023-07-31T14:46:53;15.27;;;8.93;;
75216;SDS011;63800;51.972;5.682;2023-07-31T14:49:18;14.13;;;8.88;;